sensor_id;sensor_type;location;lat;lon;timestamp;P1;durP1;ratioP1;P2;durP2;ratioP2
36061;SDS011;22123;52.412;20.970;2022-09-09T00:01:08;22.58;;;10.10;;
36061;SDS011;22123;52.412;20.970;2022-09-09T00:03:53;22.83;;;11.57;;
36061;SDS011;22123;52.412;20.970;2022-09-09T00:06:24;14.77;;;10.18;;
36061;SDS011;22123;52.412;20.970;2022-09-09T00:09:02;17.88;;;10.75;;
36061;SDS011;22123;52.412;20.970;2022-09-09T00:11:39;24.27;;;11.05;;
36061;SDS011;22123;52.412;20.970;2022-09-09T00:14:13;36.22;;;12.32;;
36061;SDS011;22123;52.412;20.970;2022-09-09T00:16:49;19.23;;;10.43;;
36061;SDS011;22123;52.412;20.970;2022-09-09T00:22:14;22.75;;;10.38;;
36061;SDS011;22123;52.412;20.970;2022-09-09T00:29:54;16.38;;;10.52;;
36061;SDS011;22123;52.412;20.970;2022-09-09T00:32:24;19.88;;;10.57;;
36061;SDS011;22123;52.412;20.970;2022-09-09T00:34:56;17.63;;;10.95;;
36061;SDS011;22123;52.412;20.970;2022-09-09T00:37:25;16.88;;;10.57;;
36061;SDS011;22123;52.412;20.970;2022-09-09T00:39:51;19.30;;;11.52;;
36061;SDS011;22123;52.412;20.970;2022-09-09T00:42:36;24.42;;;11.07;;
36061;SDS011;22123;52.412;20.970;2022-09-09T00:47:54;24.67;;;12.02;;
36061;SDS011;22123;52.412;20.970;2022-09-09T00:59:07;29.25;;;12.52;;
36061;SDS011;22123;52.412;20.970;2022-09-09T01:01:36;21.00;;;11.93;;
36061;SDS011;22123;52.412;20.970;2022-09-09T01:04:04;23.05;;;12.52;;
36061;SDS011;22123;52.412;20.970;2022-09-09T01:06:41;30.48;;;13.00;;
36061;SDS011;22123;52.412;20.970;2022-09-09T01:23:06;22.50;;;12.60;;
36061;SDS011;22123;52.412;20.970;2022-09-09T01:28:39;22.58;;;12.95;;
36061;SDS011;22123;52.412;20.970;2022-09-09T01:31:07;30.92;;;14.60;;
36061;SDS011;22123;52.412;20.970;2022-09-09T01:33:36;32.47;;;15.50;;
36061;SDS011;22123;52.412;20.970;2022-09-09T01:36:04;26.40;;;16.00;;
36061;SDS011;22123;52.412;20.970;2022-09-09T01:38:34;22.05;;;14.15;;
36061;SDS011;22123;52.412;20.970;2022-09-09T01:41:01;27.42;;;15.98;;
36061;SDS011;22123;52.412;20.970;2022-09-09T01:43:26;27.95;;;16.23;;
36061;SDS011;22123;52.412;20.970;2022-09-09T01:45:54;28.75;;;15.20;;
36061;SDS011;22123;52.412;20.970;2022-09-09T01:48:23;26.38;;;14.13;;
36061;SDS011;22123;52.412;20.970;2022-09-09T01:50:50;22.15;;;14.32;;
36061;SDS011;22123;52.412;20.970;2022-09-09T01:53:17;23.92;;;15.48;;
36061;SDS011;22123;52.412;20.970;2022-09-09T01:55:46;28.48;;;16.10;;
36061;SDS011;22123;52.412;20.970;2022-09-09T02:03:47;26.42;;;15.98;;
36061;SDS011;22123;52.412;20.970;2022-09-09T02:06:28;27.48;;;15.77;;
36061;SDS011;22123;52.412;20.970;2022-09-09T02:08:59;22.55;;;14.32;;
36061;SDS011;22123;52.412;20.970;2022-09-09T02:11:28;28.17;;;16.15;;
36061;SDS011;22123;52.412;20.970;2022-09-09T02:13:56;25.98;;;16.17;;
36061;SDS011;22123;52.412;20.970;2022-09-09T02:16:42;30.95;;;17.80;;
36061;SDS011;22123;52.412;20.970;2022-09-09T02:19:09;24.10;;;15.23;;
36061;SDS011;22123;52.412;20.970;2022-09-09T02:21:50;27.42;;;15.38;;
36061;SDS011;22123;52.412;20.970;2022-09-09T02:24:19;27.55;;;15.38;;
36061;SDS011;22123;52.412;20.970;2022-09-09T02:26:44;26.67;;;15.50;;
36061;SDS011;22123;52.412;20.970;2022-09-09T02:29:17;24.83;;;14.90;;
36061;SDS011;22123;52.412;20.970;2022-09-09T02:31:46;24.67;;;15.88;;
36061;SDS011;22123;52.412;20.970;2022-09-09T02:34:14;23.05;;;15.43;;
36061;SDS011;22123;52.412;20.970;2022-09-09T02:36:45;24.95;;;16.48;;
36061;SDS011;22123;52.412;20.970;2022-09-09T02:39:12;26.38;;;17.05;;
36061;SDS011;22123;52.412;20.970;2022-09-09T02:41:40;31.50;;;16.45;;
36061;SDS011;22123;52.412;20.970;2022-09-09T02:44:11;26.98;;;16.98;;
36061;SDS011;22123;52.412;20.970;2022-09-09T02:49:33;29.40;;;16.08;;
36061;SDS011;22123;52.412;20.970;2022-09-09T02:52:07;24.67;;;15.30;;
36061;SDS011;22123;52.412;20.970;2022-09-09T02:54:39;25.05;;;13.60;;
36061;SDS011;22123;52.412;20.970;2022-09-09T02:57:12;25.65;;;15.30;;
36061;SDS011;22123;52.412;20.970;2022-09-09T02:59:43;22.67;;;14.23;;
36061;SDS011;22123;52.412;20.970;2022-09-09T03:02:10;25.98;;;15.18;;
36061;SDS011;22123;52.412;20.970;2022-09-09T03:04:36;23.73;;;14.35;;
36061;SDS011;22123;52.412;20.970;2022-09-09T03:07:02;25.45;;;15.52;;
36061;SDS011;22123;52.412;20.970;2022-09-09T03:09:28;27.42;;;16.30;;
36061;SDS011;22123;52.412;20.970;2022-09-09T03:11:54;25.25;;;15.95;;
36061;SDS011;22123;52.412;20.970;2022-09-09T03:14:20;27.52;;;14.30;;
36061;SDS011;22123;52.412;20.970;2022-09-09T03:16:49;20.98;;;15.13;;
36061;SDS011;22123;52.412;20.970;2022-09-09T03:19:15;24.95;;;15.20;;
36061;SDS011;22123;52.412;20.970;2022-09-09T03:21:40;20.17;;;12.50;;
36061;SDS011;22123;52.412;20.970;2022-09-09T03:24:06;22.30;;;15.75;;
36061;SDS011;22123;52.412;20.970;2022-09-09T03:26:31;22.85;;;14.65;;
36061;SDS011;22123;52.412;20.970;2022-09-09T03:28:57;23.27;;;14.25;;
36061;SDS011;22123;52.412;20.970;2022-09-09T03:31:25;21.23;;;14.35;;
36061;SDS011;22123;52.412;20.970;2022-09-09T03:33:51;22.10;;;14.38;;
36061;SDS011;22123;52.412;20.970;2022-09-09T03:36:16;27.35;;;15.15;;
36061;SDS011;22123;52.412;20.970;2022-09-09T03:38:42;23.70;;;15.55;;
36061;SDS011;22123;52.412;20.970;2022-09-09T03:41:07;28.30;;;16.90;;
36061;SDS011;22123;52.412;20.970;2022-09-09T03:43:33;23.60;;;15.63;;
36061;SDS011;22123;52.412;20.970;2022-09-09T03:45:59;20.23;;;14.32;;
36061;SDS011;22123;52.412;20.970;2022-09-09T03:48:25;24.13;;;16.50;;
36061;SDS011;22123;52.412;20.970;2022-09-09T03:50:53;27.30;;;15.20;;
36061;SDS011;22123;52.412;20.970;2022-09-09T03:53:19;25.83;;;13.95;;
36061;SDS011;22123;52.412;20.970;2022-09-09T03:55:48;22.95;;;14.48;;
36061;SDS011;22123;52.412;20.970;2022-09-09T03:58:17;22.55;;;15.77;;
36061;SDS011;22123;52.412;20.970;2022-09-09T04:00:44;21.98;;;14.88;;
36061;SDS011;22123;52.412;20.970;2022-09-09T04:03:18;25.95;;;14.52;;
36061;SDS011;22123;52.412;20.970;2022-09-09T04:05:44;21.20;;;15.15;;
36061;SDS011;22123;52.412;20.970;2022-09-09T04:08:09;21.75;;;13.48;;
36061;SDS011;22123;52.412;20.970;2022-09-09T04:10:36;18.92;;;13.00;;
36061;SDS011;22123;52.412;20.970;2022-09-09T04:13:02;22.80;;;14.25;;
36061;SDS011;22123;52.412;20.970;2022-09-09T04:15:29;23.33;;;13.13;;
36061;SDS011;22123;52.412;20.970;2022-09-09T04:17:55;29.02;;;15.80;;
36061;SDS011;22123;52.412;20.970;2022-09-09T04:20:20;25.25;;;14.60;;
36061;SDS011;22123;52.412;20.970;2022-09-09T04:22:47;23.83;;;15.30;;
36061;SDS011;22123;52.412;20.970;2022-09-09T04:25:12;21.13;;;14.20;;
36061;SDS011;22123;52.412;20.970;2022-09-09T04:27:38;21.42;;;13.20;;
36061;SDS011;22123;52.412;20.970;2022-09-09T04:30:03;21.33;;;13.32;;
36061;SDS011;22123;52.412;20.970;2022-09-09T04:32:32;16.00;;;12.38;;
36061;SDS011;22123;52.412;20.970;2022-09-09T04:34:58;23.42;;;13.27;;
36061;SDS011;22123;52.412;20.970;2022-09-09T04:37:23;20.15;;;13.25;;
36061;SDS011;22123;52.412;20.970;2022-09-09T04:39:50;20.50;;;13.98;;
36061;SDS011;22123;52.412;20.970;2022-09-09T04:42:15;24.95;;;14.32;;
36061;SDS011;22123;52.412;20.970;2022-09-09T04:44:42;22.05;;;15.55;;
36061;SDS011;22123;52.412;20.970;2022-09-09T04:47:08;24.10;;;15.98;;
36061;SDS011;22123;52.412;20.970;2022-09-09T04:49:34;21.95;;;16.05;;
36061;SDS011;22123;52.412;20.970;2022-09-09T04:52:00;22.42;;;16.65;;
36061;SDS011;22123;52.412;20.970;2022-09-09T04:54:26;26.80;;;16.75;;
36061;SDS011;22123;52.412;20.970;2022-09-09T04:56:53;22.15;;;15.65;;
36061;SDS011;22123;52.412;20.970;2022-09-09T04:59:19;22.30;;;16.10;;
36061;SDS011;22123;52.412;20.970;2022-09-09T05:01:45;27.70;;;15.60;;
36061;SDS011;22123;52.412;20.970;2022-09-09T05:04:11;25.33;;;17.15;;
36061;SDS011;22123;52.412;20.970;2022-09-09T05:06:36;21.15;;;14.85;;
36061;SDS011;22123;52.412;20.970;2022-09-09T05:09:02;18.17;;;13.02;;
36061;SDS011;22123;52.412;20.970;2022-09-09T05:11:28;21.27;;;15.13;;
36061;SDS011;22123;52.412;20.970;2022-09-09T05:13:55;24.10;;;15.05;;
36061;SDS011;22123;52.412;20.970;2022-09-09T05:16:21;17.20;;;14.10;;
36061;SDS011;22123;52.412;20.970;2022-09-09T05:18:47;20.27;;;14.10;;
36061;SDS011;22123;52.412;20.970;2022-09-09T05:21:14;20.65;;;14.00;;
36061;SDS011;22123;52.412;20.970;2022-09-09T05:23:40;25.20;;;16.80;;
36061;SDS011;22123;52.412;20.970;2022-09-09T05:26:06;17.60;;;14.07;;
36061;SDS011;22123;52.412;20.970;2022-09-09T05:28:34;22.58;;;13.85;;
36061;SDS011;22123;52.412;20.970;2022-09-09T05:31:04;19.27;;;14.32;;
36061;SDS011;22123;52.412;20.970;2022-09-09T05:33:33;25.77;;;15.77;;
36061;SDS011;22123;52.412;20.970;2022-09-09T05:36:00;27.15;;;16.67;;
36061;SDS011;22123;52.412;20.970;2022-09-09T05:38:27;22.55;;;16.02;;
36061;SDS011;22123;52.412;20.970;2022-09-09T05:40:54;21.52;;;15.13;;
36061;SDS011;22123;52.412;20.970;2022-09-09T05:43:21;20.60;;;14.18;;
36061;SDS011;22123;52.412;20.970;2022-09-09T05:45:47;24.52;;;16.15;;
36061;SDS011;22123;52.412;20.970;2022-09-09T05:48:17;16.75;;;13.00;;
36061;SDS011;22123;52.412;20.970;2022-09-09T05:50:42;21.63;;;15.18;;
36061;SDS011;22123;52.412;20.970;2022-09-09T05:53:09;17.23;;;13.57;;
36061;SDS011;22123;52.412;20.970;2022-09-09T05:55:35;18.40;;;13.45;;
36061;SDS011;22123;52.412;20.970;2022-09-09T05:58:01;18.40;;;13.15;;
36061;SDS011;22123;52.412;20.970;2022-09-09T06:00:26;17.02;;;12.88;;
36061;SDS011;22123;52.412;20.970;2022-09-09T06:02:52;22.52;;;14.30;;
36061;SDS011;22123;52.412;20.970;2022-09-09T06:05:18;17.25;;;12.65;;
36061;SDS011;22123;52.412;20.970;2022-09-09T06:07:44;21.70;;;14.00;;
36061;SDS011;22123;52.412;20.970;2022-09-09T06:10:10;15.07;;;12.57;;
36061;SDS011;22123;52.412;20.970;2022-09-09T06:12:38;19.40;;;13.85;;
36061;SDS011;22123;52.412;20.970;2022-09-09T06:15:04;20.55;;;14.35;;
36061;SDS011;22123;52.412;20.970;2022-09-09T06:17:30;17.35;;;13.00;;
36061;SDS011;22123;52.412;20.970;2022-09-09T06:19:55;19.17;;;13.18;;
36061;SDS011;22123;52.412;20.970;2022-09-09T06:22:21;24.58;;;15.85;;
36061;SDS011;22123;52.412;20.970;2022-09-09T06:24:46;33.22;;;19.60;;
36061;SDS011;22123;52.412;20.970;2022-09-09T06:27:11;31.02;;;18.98;;
36061;SDS011;22123;52.412;20.970;2022-09-09T06:29:38;18.65;;;13.38;;
36061;SDS011;22123;52.412;20.970;2022-09-09T06:32:04;20.80;;;14.15;;
36061;SDS011;22123;52.412;20.970;2022-09-09T06:34:29;14.93;;;12.75;;
36061;SDS011;22123;52.412;20.970;2022-09-09T06:36:55;16.15;;;12.10;;
36061;SDS011;22123;52.412;20.970;2022-09-09T06:39:22;19.83;;;14.68;;
36061;SDS011;22123;52.412;20.970;2022-09-09T06:41:48;18.88;;;12.95;;
36061;SDS011;22123;52.412;20.970;2022-09-09T06:44:14;16.83;;;12.70;;
36061;SDS011;22123;52.412;20.970;2022-09-09T06:46:40;17.83;;;12.57;;
36061;SDS011;22123;52.412;20.970;2022-09-09T06:49:07;16.35;;;12.35;;
36061;SDS011;22123;52.412;20.970;2022-09-09T06:51:34;19.33;;;13.50;;
36061;SDS011;22123;52.412;20.970;2022-09-09T06:54:01;14.88;;;12.32;;
36061;SDS011;22123;52.412;20.970;2022-09-09T06:56:32;23.00;;;12.30;;
36061;SDS011;22123;52.412;20.970;2022-09-09T06:59:00;23.17;;;13.65;;
36061;SDS011;22123;52.412;20.970;2022-09-09T07:01:30;26.77;;;13.70;;
36061;SDS011;22123;52.412;20.970;2022-09-09T07:03:57;16.75;;;13.57;;
36061;SDS011;22123;52.412;20.970;2022-09-09T07:06:30;15.50;;;12.75;;
36061;SDS011;22123;52.412;20.970;2022-09-09T07:08:58;21.65;;;13.20;;
36061;SDS011;22123;52.412;20.970;2022-09-09T07:11:29;13.43;;;11.35;;
36061;SDS011;22123;52.412;20.970;2022-09-09T07:13:59;12.02;;;10.73;;
36061;SDS011;22123;52.412;20.970;2022-09-09T07:16:25;19.17;;;11.40;;
36061;SDS011;22123;52.412;20.970;2022-09-09T07:18:52;15.73;;;12.20;;
36061;SDS011;22123;52.412;20.970;2022-09-09T07:21:22;18.17;;;11.98;;
36061;SDS011;22123;52.412;20.970;2022-09-09T07:23:49;16.27;;;13.52;;
36061;SDS011;22123;52.412;20.970;2022-09-09T07:26:18;15.05;;;11.93;;
36061;SDS011;22123;52.412;20.970;2022-09-09T07:28:45;13.73;;;11.30;;
36061;SDS011;22123;52.412;20.970;2022-09-09T07:31:16;17.35;;;11.32;;
36061;SDS011;22123;52.412;20.970;2022-09-09T07:33:49;13.65;;;10.48;;
36061;SDS011;22123;52.412;20.970;2022-09-09T07:36:16;15.27;;;11.65;;
36061;SDS011;22123;52.412;20.970;2022-09-09T07:38:50;17.30;;;13.23;;
36061;SDS011;22123;52.412;20.970;2022-09-09T07:43:50;16.27;;;12.40;;
36061;SDS011;22123;52.412;20.970;2022-09-09T07:46:17;17.83;;;12.07;;
36061;SDS011;22123;52.412;20.970;2022-09-09T07:48:47;19.23;;;14.35;;
36061;SDS011;22123;52.412;20.970;2022-09-09T07:51:16;24.17;;;13.77;;
36061;SDS011;22123;52.412;20.970;2022-09-09T07:53:44;20.90;;;14.25;;
36061;SDS011;22123;52.412;20.970;2022-09-09T07:56:11;17.30;;;14.13;;
36061;SDS011;22123;52.412;20.970;2022-09-09T07:58:39;20.80;;;14.13;;
36061;SDS011;22123;52.412;20.970;2022-09-09T08:01:10;26.23;;;14.45;;
36061;SDS011;22123;52.412;20.970;2022-09-09T08:03:40;17.70;;;13.85;;
36061;SDS011;22123;52.412;20.970;2022-09-09T08:06:07;25.42;;;15.57;;
36061;SDS011;22123;52.412;20.970;2022-09-09T08:08:34;20.85;;;14.73;;
36061;SDS011;22123;52.412;20.970;2022-09-09T08:11:04;21.20;;;15.05;;
36061;SDS011;22123;52.412;20.970;2022-09-09T08:13:33;23.23;;;15.68;;
36061;SDS011;22123;52.412;20.970;2022-09-09T08:16:10;21.63;;;16.13;;
36061;SDS011;22123;52.412;20.970;2022-09-09T08:18:38;20.83;;;14.82;;
36061;SDS011;22123;52.412;20.970;2022-09-09T08:21:25;25.38;;;17.02;;
36061;SDS011;22123;52.412;20.970;2022-09-09T08:23:53;21.42;;;15.60;;
36061;SDS011;22123;52.412;20.970;2022-09-09T08:26:23;28.52;;;16.92;;
36061;SDS011;22123;52.412;20.970;2022-09-09T08:31:24;22.50;;;16.33;;
36061;SDS011;22123;52.412;20.970;2022-09-09T08:33:49;22.40;;;15.43;;
36061;SDS011;22123;52.412;20.970;2022-09-09T08:36:16;21.83;;;15.77;;
36061;SDS011;22123;52.412;20.970;2022-09-09T08:38:43;26.00;;;17.40;;
36061;SDS011;22123;52.412;20.970;2022-09-09T08:52:14;30.95;;;18.83;;
36061;SDS011;22123;52.412;20.970;2022-09-09T08:54:44;28.10;;;18.92;;
36061;SDS011;22123;52.412;20.970;2022-09-09T08:57:14;29.13;;;19.52;;
36061;SDS011;22123;52.412;20.970;2022-09-09T08:59:46;32.97;;;19.83;;
36061;SDS011;22123;52.412;20.970;2022-09-09T09:02:34;32.08;;;20.85;;
36061;SDS011;22123;52.412;20.970;2022-09-09T09:05:12;32.13;;;20.58;;
36061;SDS011;22123;52.412;20.970;2022-09-09T09:10:35;33.20;;;19.92;;
36061;SDS011;22123;52.412;20.970;2022-09-09T09:13:14;36.13;;;22.08;;
36061;SDS011;22123;52.412;20.970;2022-09-09T09:15:42;29.67;;;19.40;;
36061;SDS011;22123;52.412;20.970;2022-09-09T09:18:13;31.98;;;20.25;;
36061;SDS011;22123;52.412;20.970;2022-09-09T09:23:13;32.85;;;21.70;;
36061;SDS011;22123;52.412;20.970;2022-09-09T09:25:47;33.35;;;21.17;;
36061;SDS011;22123;52.412;20.970;2022-09-09T09:28:23;32.83;;;21.25;;
36061;SDS011;22123;52.412;20.970;2022-09-09T09:30:54;32.17;;;21.02;;
36061;SDS011;22123;52.412;20.970;2022-09-09T09:35:54;39.85;;;21.13;;
36061;SDS011;22123;52.412;20.970;2022-09-09T09:38:24;39.20;;;22.75;;
36061;SDS011;22123;52.412;20.970;2022-09-09T09:40:54;41.17;;;21.27;;
36061;SDS011;22123;52.412;20.970;2022-09-09T09:43:26;31.98;;;20.88;;
36061;SDS011;22123;52.412;20.970;2022-09-09T09:45:52;35.08;;;20.65;;
36061;SDS011;22123;52.412;20.970;2022-09-09T09:48:18;29.33;;;18.95;;
36061;SDS011;22123;52.412;20.970;2022-09-09T09:50:50;26.15;;;18.88;;
36061;SDS011;22123;52.412;20.970;2022-09-09T09:53:20;30.77;;;21.30;;
36061;SDS011;22123;52.412;20.970;2022-09-09T09:58:32;37.17;;;21.88;;
36061;SDS011;22123;52.412;20.970;2022-09-09T10:01:04;31.08;;;21.13;;
36061;SDS011;22123;52.412;20.970;2022-09-09T10:03:30;37.22;;;22.40;;
36061;SDS011;22123;52.412;20.970;2022-09-09T10:05:57;32.13;;;22.52;;
36061;SDS011;22123;52.412;20.970;2022-09-09T10:08:25;35.72;;;22.50;;
36061;SDS011;22123;52.412;20.970;2022-09-09T10:19:33;38.60;;;22.92;;
36061;SDS011;22123;52.412;20.970;2022-09-09T10:35:38;45.00;;;23.60;;
36061;SDS011;22123;52.412;20.970;2022-09-09T10:40:58;49.25;;;26.63;;
36061;SDS011;22123;52.412;20.970;2022-09-09T10:51:48;44.15;;;26.75;;
36061;SDS011;22123;52.412;20.970;2022-09-09T10:57:56;44.22;;;28.50;;
36061;SDS011;22123;52.412;20.970;2022-09-09T11:03:04;54.00;;;29.70;;
36061;SDS011;22123;52.412;20.970;2022-09-09T11:05:41;43.20;;;26.95;;
36061;SDS011;22123;52.412;20.970;2022-09-09T11:08:12;47.95;;;28.20;;
36061;SDS011;22123;52.412;20.970;2022-09-09T11:16:09;43.57;;;26.83;;
36061;SDS011;22123;52.412;20.970;2022-09-09T11:19:00;45.47;;;27.85;;
36061;SDS011;22123;52.412;20.970;2022-09-09T11:21:38;52.00;;;29.67;;
36061;SDS011;22123;52.412;20.970;2022-09-09T11:24:13;54.33;;;29.58;;
36061;SDS011;22123;52.412;20.970;2022-09-09T11:26:49;54.22;;;29.75;;
36061;SDS011;22123;52.412;20.970;2022-09-09T11:39:53;60.00;;;35.42;;
36061;SDS011;22123;52.412;20.970;2022-09-09T11:42:23;59.78;;;35.70;;
36061;SDS011;22123;52.412;20.970;2022-09-09T11:44:49;58.92;;;33.90;;
36061;SDS011;22123;52.412;20.970;2022-09-09T11:47:20;56.88;;;34.15;;
36061;SDS011;22123;52.412;20.970;2022-09-09T11:49:46;62.30;;;35.58;;
36061;SDS011;22123;52.412;20.970;2022-09-09T11:52:35;68.53;;;37.85;;
36061;SDS011;22123;52.412;20.970;2022-09-09T11:55:10;60.88;;;32.65;;
36061;SDS011;22123;52.412;20.970;2022-09-09T12:00:39;60.78;;;33.40;;
36061;SDS011;22123;52.412;20.970;2022-09-09T12:08:41;61.03;;;32.42;;
36061;SDS011;22123;52.412;20.970;2022-09-09T12:11:09;56.17;;;31.58;;
36061;SDS011;22123;52.412;20.970;2022-09-09T12:13:36;61.15;;;33.90;;
36061;SDS011;22123;52.412;20.970;2022-09-09T12:16:01;62.67;;;33.05;;
36061;SDS011;22123;52.412;20.970;2022-09-09T12:18:34;57.35;;;31.98;;
36061;SDS011;22123;52.412;20.970;2022-09-09T12:32:11;60.83;;;35.22;;
36061;SDS011;22123;52.412;20.970;2022-09-09T12:34:42;68.32;;;35.65;;
36061;SDS011;22123;52.412;20.970;2022-09-09T12:37:35;66.03;;;35.05;;
36061;SDS011;22123;52.412;20.970;2022-09-09T12:40:06;64.80;;;35.22;;
36061;SDS011;22123;52.412;20.970;2022-09-09T12:42:46;65.78;;;33.55;;
36061;SDS011;22123;52.412;20.970;2022-09-09T12:45:25;69.43;;;35.78;;
36061;SDS011;22123;52.412;20.970;2022-09-09T12:50:23;72.40;;;37.83;;
36061;SDS011;22123;52.412;20.970;2022-09-09T12:52:52;70.25;;;36.17;;
36061;SDS011;22123;52.412;20.970;2022-09-09T12:55:21;61.47;;;34.17;;
36061;SDS011;22123;52.412;20.970;2022-09-09T12:58:11;75.45;;;35.40;;
36061;SDS011;22123;52.412;20.970;2022-09-09T13:00:48;68.00;;;34.67;;
36061;SDS011;22123;52.412;20.970;2022-09-09T13:03:16;66.78;;;36.85;;
36061;SDS011;22123;52.412;20.970;2022-09-09T13:05:45;78.82;;;37.63;;
36061;SDS011;22123;52.412;20.970;2022-09-09T13:08:12;75.43;;;36.90;;
36061;SDS011;22123;52.412;20.970;2022-09-09T13:10:40;62.17;;;34.47;;
36061;SDS011;22123;52.412;20.970;2022-09-09T13:13:17;66.80;;;36.95;;
36061;SDS011;22123;52.412;20.970;2022-09-09T13:15:49;69.47;;;37.20;;
36061;SDS011;22123;52.412;20.970;2022-09-09T13:18:18;63.30;;;34.58;;
36061;SDS011;22123;52.412;20.970;2022-09-09T13:20:49;79.72;;;38.00;;
36061;SDS011;22123;52.412;20.970;2022-09-09T13:23:16;84.40;;;40.83;;
36061;SDS011;22123;52.412;20.970;2022-09-09T13:25:54;73.78;;;38.63;;
36061;SDS011;22123;52.412;20.970;2022-09-09T13:28:26;76.88;;;38.63;;
36061;SDS011;22123;52.412;20.970;2022-09-09T13:30:57;78.25;;;39.10;;
36061;SDS011;22123;52.412;20.970;2022-09-09T13:33:28;70.85;;;36.35;;
36061;SDS011;22123;52.412;20.970;2022-09-09T13:35:59;72.38;;;36.00;;
36061;SDS011;22123;52.412;20.970;2022-09-09T13:38:31;78.80;;;36.10;;
36061;SDS011;22123;52.412;20.970;2022-09-09T13:41:01;68.47;;;34.03;;
36061;SDS011;22123;52.412;20.970;2022-09-09T13:43:31;74.07;;;35.60;;
36061;SDS011;22123;52.412;20.970;2022-09-09T13:46:23;68.47;;;34.58;;
36061;SDS011;22123;52.412;20.970;2022-09-09T13:48:54;75.85;;;37.80;;
36061;SDS011;22123;52.412;20.970;2022-09-09T13:51:29;77.57;;;36.80;;
36061;SDS011;22123;52.412;20.970;2022-09-09T13:53:59;78.45;;;37.10;;
36061;SDS011;22123;52.412;20.970;2022-09-09T13:56:25;70.65;;;35.28;;
36061;SDS011;22123;52.412;20.970;2022-09-09T13:58:51;71.80;;;37.30;;
36061;SDS011;22123;52.412;20.970;2022-09-09T14:01:16;73.63;;;34.00;;
36061;SDS011;22123;52.412;20.970;2022-09-09T14:03:42;69.47;;;33.17;;
36061;SDS011;22123;52.412;20.970;2022-09-09T14:06:08;67.75;;;33.45;;
36061;SDS011;22123;52.412;20.970;2022-09-09T14:08:35;78.55;;;33.35;;
36061;SDS011;22123;52.412;20.970;2022-09-09T14:11:02;80.35;;;34.03;;
36061;SDS011;22123;52.412;20.970;2022-09-09T14:13:28;79.43;;;36.15;;
36061;SDS011;22123;52.412;20.970;2022-09-09T14:15:54;81.82;;;36.33;;
36061;SDS011;22123;52.412;20.970;2022-09-09T14:18:19;83.32;;;37.28;;
36061;SDS011;22123;52.412;20.970;2022-09-09T14:20:47;79.20;;;36.90;;
36061;SDS011;22123;52.412;20.970;2022-09-09T14:23:13;76.97;;;36.50;;
36061;SDS011;22123;52.412;20.970;2022-09-09T14:25:40;79.80;;;36.78;;
36061;SDS011;22123;52.412;20.970;2022-09-09T14:28:07;74.55;;;35.08;;
36061;SDS011;22123;52.412;20.970;2022-09-09T14:30:34;78.22;;;35.92;;
36061;SDS011;22123;52.412;20.970;2022-09-09T14:32:59;87.53;;;39.25;;
36061;SDS011;22123;52.412;20.970;2022-09-09T14:35:25;90.68;;;37.92;;
36061;SDS011;22123;52.412;20.970;2022-09-09T14:37:50;89.13;;;36.55;;
36061;SDS011;22123;52.412;20.970;2022-09-09T14:40:16;88.32;;;36.78;;
36061;SDS011;22123;52.412;20.970;2022-09-09T14:42:42;82.43;;;35.33;;
36061;SDS011;22123;52.412;20.970;2022-09-09T14:45:07;97.35;;;36.33;;
36061;SDS011;22123;52.412;20.970;2022-09-09T14:47:33;78.60;;;35.42;;
36061;SDS011;22123;52.412;20.970;2022-09-09T14:49:58;69.28;;;33.70;;
36061;SDS011;22123;52.412;20.970;2022-09-09T14:52:25;68.93;;;33.17;;
36061;SDS011;22123;52.412;20.970;2022-09-09T14:54:51;62.88;;;31.63;;
36061;SDS011;22123;52.412;20.970;2022-09-09T14:57:16;72.40;;;33.45;;
36061;SDS011;22123;52.412;20.970;2022-09-09T14:59:42;59.63;;;31.80;;
36061;SDS011;22123;52.412;20.970;2022-09-09T15:02:08;54.97;;;30.77;;
36061;SDS011;22123;52.412;20.970;2022-09-09T15:04:34;63.50;;;33.28;;
36061;SDS011;22123;52.412;20.970;2022-09-09T15:07:00;53.33;;;30.60;;
36061;SDS011;22123;52.412;20.970;2022-09-09T15:09:25;66.63;;;34.50;;
36061;SDS011;22123;52.412;20.970;2022-09-09T15:11:51;64.55;;;36.42;;
36061;SDS011;22123;52.412;20.970;2022-09-09T15:14:16;64.97;;;38.42;;
36061;SDS011;22123;52.412;20.970;2022-09-09T15:16:42;53.15;;;31.33;;
36061;SDS011;22123;52.412;20.970;2022-09-09T15:19:07;61.15;;;32.00;;
36061;SDS011;22123;52.412;20.970;2022-09-09T15:21:34;52.03;;;31.55;;
36061;SDS011;22123;52.412;20.970;2022-09-09T15:24:01;54.97;;;30.42;;
36061;SDS011;22123;52.412;20.970;2022-09-09T15:26:27;61.38;;;31.08;;
36061;SDS011;22123;52.412;20.970;2022-09-09T15:28:55;56.17;;;31.48;;
36061;SDS011;22123;52.412;20.970;2022-09-09T15:31:24;53.92;;;30.98;;
36061;SDS011;22123;52.412;20.970;2022-09-09T15:33:57;59.92;;;32.50;;
36061;SDS011;22123;52.412;20.970;2022-09-09T15:36:36;59.78;;;33.22;;
36061;SDS011;22123;52.412;20.970;2022-09-09T15:39:03;53.33;;;30.05;;
36061;SDS011;22123;52.412;20.970;2022-09-09T15:41:30;64.82;;;32.72;;
36061;SDS011;22123;52.412;20.970;2022-09-09T15:43:56;67.70;;;33.45;;
36061;SDS011;22123;52.412;20.970;2022-09-09T15:46:26;58.92;;;33.20;;
36061;SDS011;22123;52.412;20.970;2022-09-09T15:48:55;64.47;;;31.33;;
36061;SDS011;22123;52.412;20.970;2022-09-09T15:51:23;65.30;;;32.00;;
36061;SDS011;22123;52.412;20.970;2022-09-09T15:53:54;65.22;;;32.00;;
36061;SDS011;22123;52.412;20.970;2022-09-09T15:56:21;64.10;;;31.73;;
36061;SDS011;22123;52.412;20.970;2022-09-09T15:58:47;62.53;;;30.63;;
36061;SDS011;22123;52.412;20.970;2022-09-09T16:01:12;63.13;;;31.95;;
36061;SDS011;22123;52.412;20.970;2022-09-09T16:03:39;68.55;;;32.40;;
36061;SDS011;22123;52.412;20.970;2022-09-09T16:06:11;64.43;;;33.03;;
36061;SDS011;22123;52.412;20.970;2022-09-09T16:08:39;64.85;;;32.78;;
36061;SDS011;22123;52.412;20.970;2022-09-09T16:11:14;61.88;;;32.55;;
36061;SDS011;22123;52.412;20.970;2022-09-09T16:13:42;66.65;;;33.55;;
36061;SDS011;22123;52.412;20.970;2022-09-09T16:16:09;62.47;;;32.83;;
36061;SDS011;22123;52.412;20.970;2022-09-09T16:18:38;61.47;;;31.38;;
36061;SDS011;22123;52.412;20.970;2022-09-09T16:21:04;59.53;;;34.25;;
36061;SDS011;22123;52.412;20.970;2022-09-09T16:23:31;70.50;;;33.53;;
36061;SDS011;22123;52.412;20.970;2022-09-09T16:25:57;62.63;;;36.85;;
36061;SDS011;22123;52.412;20.970;2022-09-09T16:28:23;62.35;;;34.10;;
36061;SDS011;22123;52.412;20.970;2022-09-09T16:30:49;70.93;;;35.50;;
36061;SDS011;22123;52.412;20.970;2022-09-09T16:33:14;63.95;;;34.95;;
36061;SDS011;22123;52.412;20.970;2022-09-09T16:35:41;62.92;;;34.05;;
36061;SDS011;22123;52.412;20.970;2022-09-09T16:38:06;68.90;;;34.17;;
36061;SDS011;22123;52.412;20.970;2022-09-09T16:40:35;63.55;;;33.03;;
36061;SDS011;22123;52.412;20.970;2022-09-09T16:43:01;58.88;;;34.22;;
36061;SDS011;22123;52.412;20.970;2022-09-09T16:45:28;66.88;;;35.72;;
36061;SDS011;22123;52.412;20.970;2022-09-09T16:47:55;66.70;;;34.58;;